Time;durP1;ratioP1;P1;durP2;ratioP2;P2;SDS_P1;SDS_P2;PMS_P1;PMS_P2;Temp;Humidity;BMP_temperature;BMP_pressure;BME280_temperature;BME280_humidity;BME280_pressure;Samples;Min_cycle;Max_cycle;Signal;HPM_P1;HPM_P2
2021/03/19 00:00:27;;;;;;;18.33;7.78;;;;;;;28.98;53.01;100876.41;5034850;28;70039;-41
2021/03/19 00:02:57;;;;;;;15.32;8.10;;;;;;;29.05;53.08;100888.06;5035043;28;66399;-42
2021/03/19 00:05:28;;;;;;;24.40;8.40;;;;;;;29.08;53.61;100893.88;5031973;28;69649;-44
2021/03/19 00:07:59;;;;;;;13.60;7.90;;;;;;;29.11;54.12;100888.09;5021606;28;65707;-43
2021/03/19 00:10:32;;;;;;;14.15;8.45;;;;;;;29.15;54.96;100889.31;5035809;28;69200;-43
2021/03/19 00:13:07;;;;;;;14.43;8.40;;;;;;;29.21;54.59;100887.66;5039515;28;65314;-44
2021/03/19 00:15:38;;;;;;;15.90;9.30;;;;;;;29.18;54.48;100882.66;5038054;28;69165;-43
2021/03/19 00:18:09;;;;;;;12.73;8.63;;;;;;;29.25;54.76;100904.25;5032915;28;65446;-40
2021/03/19 00:20:41;;;;;;;18.27;10.15;;;;;;;29.27;54.71;100903.03;5039828;28;68936;-41
2021/03/19 00:23:12;;;;;;;26.52;10.30;;;;;;;29.31;55.61;100904.28;5038813;28;65283;-41
2021/03/19 00:25:43;;;;;;;20.92;10.52;;;;;;;29.28;56.24;100898.44;5038496;28;69518;-41
2021/03/19 00:28:16;;;;;;;28.35;12.07;;;;;;;29.29;56.25;100902.81;5033754;28;64769;-42
2021/03/19 00:30:47;;;;;;;40.10;13.35;;;;;;;29.37;56.56;100914.25;5037856;27;69376;-41
2021/03/19 00:33:17;;;;;;;47.67;13.10;;;;;;;29.38;56.58;100907.78;5039862;28;66362;-43
2021/03/19 00:35:49;;;;;;;39.40;13.65;;;;;;;29.43;57.03;100917.16;5037199;28;69436;-43
2021/03/19 00:38:20;;;;;;;51.03;13.88;;;;;;;29.47;57.18;100918.38;5025820;28;66728;-42
2021/03/19 00:40:50;;;;;;;35.28;11.68;;;;;;;29.48;57.31;100926.28;5036280;28;69900;-42
2021/03/19 00:43:20;;;;;;;26.98;11.82;;;;;;;29.51;57.38;100922.34;5038612;28;65603;-43
2021/03/19 00:45:50;;;;;;;28.88;11.93;;;;;;;29.53;57.30;100928.34;5034213;28;69122;-42
2021/03/19 00:48:20;;;;;;;16.10;11.10;;;;;;;29.55;57.67;100929.81;5035717;28;66845;-41
2021/03/19 00:50:55;;;;;;;32.72;11.15;;;;;;;29.57;57.54;100924.19;5034070;28;70462;-41
2021/03/19 00:53:24;;;;;;;18.67;11.47;;;;;;;29.55;57.43;100931.69;5037084;28;66895;-42
2021/03/19 00:55:56;;;;;;;18.65;10.68;;;;;;;29.55;56.88;100931.69;5037181;28;69562;-41
2021/03/19 00:58:26;;;;;;;21.58;10.75;;;;;;;29.59;56.54;100939.16;5041882;28;65796;-41
2021/03/19 01:00:56;;;;;;;23.77;10.82;;;;;;;29.60;56.31;100934.59;5034290;28;69998;-41
2021/03/19 01:03:26;;;;;;;21.67;10.65;;;;;;;29.62;56.52;100937.91;5048731;28;65980;-43
2021/03/19 01:05:57;;;;;;;20.90;10.52;;;;;;;29.64;56.52;100930.44;5039071;28;70383;-42
2021/03/19 01:08:27;;;;;;;18.67;11.20;;;;;;;29.67;55.84;100940.84;5038474;28;65330;-41
2021/03/19 01:10:58;;;;;;;20.80;10.48;;;;;;;29.35;56.18;100883.88;5040501;28;69702;-42
2021/03/19 01:13:29;;;;;;;16.30;10.70;;;;;;;29.69;56.22;100937.94;5043033;28;66204;-41
2021/03/19 01:16:00;;;;;;;13.93;10.57;;;;;;;29.72;56.03;100937.50;5041701;28;70059;-42
2021/03/19 01:18:31;;;;;;;17.73;11.27;;;;;;;29.70;55.47;100932.31;5053533;27;65118;-43
2021/03/19 01:21:15;;;;;;;21.63;10.90;;;;;;;29.76;55.56;100939.59;5047440;28;70493;-42
2021/03/19 01:23:46;;;;;;;12.57;10.45;;;;;;;29.77;55.82;100935.81;5040874;28;66067;-42
2021/03/19 01:26:17;;;;;;;17.00;9.85;;;;;;;29.80;55.47;100946.22;5039609;28;70140;-41
2021/03/19 01:28:48;;;;;;;12.23;10.07;;;;;;;29.77;55.81;100941.22;5044018;28;67110;-43
2021/03/19 01:31:25;;;;;;;14.68;9.95;;;;;;;29.78;55.81;100948.31;5046347;28;69797;-42
2021/03/19 01:33:56;;;;;;;11.82;8.80;;;;;;;29.83;55.39;100956.59;5037614;28;65766;-40
2021/03/19 01:36:26;;;;;;;12.05;10.10;;;;;;;29.87;55.07;100953.50;5040772;28;69467;-41
2021/03/19 01:38:56;;;;;;;16.63;10.25;;;;;;;29.88;55.46;100947.03;5044455;28;65697;-42
2021/03/19 01:41:26;;;;;;;14.00;9.18;;;;;;;29.92;55.31;100949.13;5040371;27;69040;-42
2021/03/19 01:44:33;;;;;;;10.75;9.07;;;;;;;29.88;55.27;100953.28;5042618;28;66415;-43
2021/03/19 01:47:40;;;;;;;9.93;8.70;;;;;;;29.92;55.34;100953.69;5047910;27;69857;-43
2021/03/19 01:50:46;;;;;;;9.93;8.82;;;;;;;29.96;55.14;100961.16;5034853;28;65915;-45
2021/03/19 01:53:53;;;;;;;14.00;9.93;;;;;;;29.98;55.09;100955.56;5036883;28;69440;-42
2021/03/19 01:57:00;;;;;;;12.07;8.88;;;;;;;29.97;54.84;100948.47;5033729;28;66175;-44
2021/03/19 02:00:23;;;;;;;12.73;9.25;;;;;;;30.00;54.90;100956.16;5036259;28;70297;-41
2021/03/19 02:03:30;;;;;;;9.35;8.43;;;;;;;30.06;54.43;100952.59;4994077;28;66633;-42
2021/03/19 02:06:38;;;;;;;9.93;8.60;;;;;;;30.08;54.63;100942.38;5033287;28;69167;-42
2021/03/19 02:09:45;;;;;;;16.70;8.77;;;;;;;30.13;54.12;100950.69;5036987;28;66026;-41
2021/03/19 02:12:51;;;;;;;9.50;8.50;;;;;;;30.18;53.85;100937.38;5038298;28;70298;-41
2021/03/19 02:15:58;;;;;;;10.55;8.48;;;;;;;30.20;53.95;100943.41;5036365;28;65327;-43
2021/03/19 02:19:04;;;;;;;10.07;8.35;;;;;;;30.25;53.53;100946.31;5038067;28;70985;-42
2021/03/19 02:22:16;;;;;;;8.77;7.85;;;;;;;30.28;53.57;100953.16;5031204;28;66260;-43
2021/03/19 02:25:23;;;;;;;8.73;7.55;;;;;;;30.32;53.84;100950.88;5046368;28;70648;-42
2021/03/19 02:28:31;;;;;;;12.73;8.60;;;;;;;30.36;53.61;100960.22;5040718;28;66808;-42
2021/03/19 02:31:10;;;;;;;8.75;7.85;;;;;;;30.44;53.32;100949.16;5037259;28;69046;-42
2021/03/19 02:33:52;;;;;;;15.70;8.00;;;;;;;30.47;53.14;100943.28;5046778;28;65253;-42
2021/03/19 02:36:26;;;;;;;10.13;7.70;;;;;;;30.36;52.50;100919.63;5043339;27;70796;-42
2021/03/19 02:38:56;;;;;;;11.43;7.90;;;;;;;30.53;52.43;100941.59;5038466;28;66159;-42
2021/03/19 02:41:26;;;;;;;8.15;7.35;;;;;;;30.56;52.92;100944.69;5020731;28;69415;-42
2021/03/19 02:43:56;;;;;;;10.57;7.95;;;;;;;30.64;52.52;100946.34;5035442;28;66645;-42
2021/03/19 02:46:29;;;;;;;10.02;7.45;;;;;;;30.67;52.71;100946.75;5038044;27;69094;-43
2021/03/19 02:49:00;;;;;;;9.73;7.72;;;;;;;30.65;52.16;100932.59;5029277;28;66786;-44
2021/03/19 02:51:31;;;;;;;8.77;7.80;;;;;;;30.75;51.89;100944.81;5052588;28;70633;-42
2021/03/19 02:54:01;;;;;;;8.82;7.93;;;;;;;30.79;52.48;100935.22;5039007;28;65955;-42
2021/03/19 02:56:31;;;;;;;9.48;8.13;;;;;;;30.82;52.02;100937.53;5030065;28;69261;-42
2021/03/19 02:59:02;;;;;;;10.82;7.32;;;;;;;30.86;52.27;100941.44;5046489;28;65634;-42
2021/03/19 03:01:32;;;;;;;7.50;6.85;;;;;;;30.89;51.61;100930.97;5043250;27;70947;-43
2021/03/19 03:04:02;;;;;;;11.00;7.28;;;;;;;30.89;51.67;100927.44;5037411;28;65448;-42
2021/03/19 03:06:58;;;;;;;7.88;7.10;;;;;;;30.93;52.13;100928.69;5035407;28;70133;-43
2021/03/19 03:09:35;;;;;;;8.82;7.68;;;;;;;31.00;51.81;100925.91;5034893;28;65994;-42
2021/03/19 03:12:05;;;;;;;7.50;6.78;;;;;;;31.04;51.59;100914.44;5051724;28;69008;-42
2021/03/19 03:14:35;;;;;;;7.97;7.18;;;;;;;31.07;51.79;100924.81;5051683;28;66541;-42
2021/03/19 03:17:05;;;;;;;7.30;6.70;;;;;;;31.10;51.61;100918.97;5034041;28;69183;-43
2021/03/19 03:19:35;;;;;;;7.65;6.97;;;;;;;31.12;51.01;100916.00;5044942;28;65078;-43
2021/03/19 03:22:05;;;;;;;9.05;8.18;;;;;;;31.19;51.34;100910.56;5041191;28;69585;-42
2021/03/19 03:24:35;;;;;;;12.98;8.27;;;;;;;31.22;51.19;100913.66;5037884;28;65060;-42
2021/03/19 03:27:08;;;;;;;8.82;7.25;;;;;;;31.26;51.06;100911.31;5041254;27;69798;-41
2021/03/19 03:29:38;;;;;;;7.97;6.90;;;;;;;31.18;51.12;100882.63;5037317;28;66162;-42
2021/03/19 03:32:08;;;;;;;9.38;7.60;;;;;;;31.32;51.13;100911.28;5036926;28;70217;-41
2021/03/19 03:34:38;;;;;;;9.77;7.57;;;;;;;31.36;51.13;100900.84;5038464;28;65499;-42
2021/03/19 03:37:09;;;;;;;6.88;6.38;;;;;;;31.40;50.60;100896.63;5035174;28;70841;-41
2021/03/19 03:39:39;;;;;;;9.02;7.00;;;;;;;31.45;50.62;100898.66;5036417;28;66222;-42
2021/03/19 03:42:09;;;;;;;12.20;7.53;;;;;;;31.44;50.64;100884.28;5044347;28;69876;-43
2021/03/19 03:44:39;;;;;;;9.30;6.85;;;;;;;31.50;50.49;100880.66;5044224;28;68027;-42
2021/03/19 03:47:10;;;;;;;11.25;7.63;;;;;;;31.53;50.29;100880.22;5042342;28;70676;-41
2021/03/19 03:49:40;;;;;;;8.95;7.03;;;;;;;31.45;50.31;100845.25;5030466;28;66739;-43
2021/03/19 03:52:10;;;;;;;7.95;7.22;;;;;;;31.63;50.06;100868.03;5041350;28;70057;-42
2021/03/19 03:54:40;;;;;;;8.40;7.32;;;;;;;31.67;50.24;100863.81;5043784;28;66060;-42
2021/03/19 03:57:10;;;;;;;12.23;7.07;;;;;;;31.69;49.86;100867.13;5040539;28;70217;-42
2021/03/19 03:59:40;;;;;;;7.03;6.32;;;;;;;31.73;50.45;100862.91;5044921;28;66472;-42
2021/03/19 04:02:23;;;;;;;8.05;6.53;;;;;;;31.72;49.76;100855.81;5039963;28;71312;-41
2021/03/19 04:04:54;;;;;;;7.32;6.72;;;;;;;31.79;50.08;100851.16;5039512;28;66979;-41
2021/03/19 04:07:24;;;;;;;13.25;7.10;;;;;;;31.85;49.97;100855.66;5046813;27;69204;-43
2021/03/19 04:09:54;;;;;;;11.07;7.15;;;;;;;31.88;49.79;100833.50;5047022;28;65418;-42
2021/03/19 04:12:24;;;;;;;7.60;7.00;;;;;;;31.91;50.03;100833.09;5042930;28;70235;-42
2021/03/19 04:14:54;;;;;;;7.03;6.32;;;;;;;31.95;49.83;100828.03;5044322;28;66663;-41
2021/03/19 04:17:33;;;;;;;7.35;6.75;;;;;;;31.96;49.75;100835.13;5043199;27;69403;-42
2021/03/19 04:20:06;;;;;;;7.32;6.72;;;;;;;31.99;49.27;100819.19;5043974;28;66062;-42
2021/03/19 04:22:36;;;;;;;6.90;6.18;;;;;;;32.07;49.30;100814.50;5041263;28;69674;-40
2021/03/19 04:25:07;;;;;;;8.25;6.50;;;;;;;32.07;49.13;100809.06;5030603;28;65345;-42
2021/03/19 04:27:50;;;;;;;7.38;6.57;;;;;;;32.08;49.53;100805.31;5040685;28;69816;-42
2021/03/19 04:30:27;;;;;;;9.13;6.72;;;;;;;32.11;49.05;100791.28;5045507;28;66237;-42
2021/03/19 04:32:59;;;;;;;6.60;6.10;;;;;;;32.22;49.19;100802.16;5030238;28;69810;-42
2021/03/19 04:35:31;;;;;;;7.10;6.32;;;;;;;32.24;48.97;100799.25;5052192;28;66711;-42
2021/03/19 04:38:14;;;;;;;5.78;5.28;;;;;;;32.12;48.94;100768.50;5039441;28;69647;-42
2021/03/19 04:40:47;;;;;;;9.45;5.90;;;;;;;32.29;48.90;100785.81;5039755;28;65417;-42
2021/03/19 04:43:17;;;;;;;9.70;6.45;;;;;;;32.24;48.62;100767.50;5032447;28;69877;-43
2021/03/19 04:45:47;;;;;;;8.95;5.82;;;;;;;32.39;48.66;100777.91;5079166;27;64229;-43
2021/03/19 04:48:17;;;;;;;6.80;6.10;;;;;;;32.42;48.81;100772.00;5045676;28;70069;-42
2021/03/19 04:50:47;;;;;;;6.65;6.05;;;;;;;32.45;48.45;100774.25;4999702;28;65828;-41
2021/03/19 04:53:16;;;;;;;11.15;6.38;;;;;;;32.51;48.75;100760.84;5043481;28;70035;-42
2021/03/19 04:55:46;;;;;;;11.52;6.03;;;;;;;32.52;48.55;100759.78;5042056;28;65956;-42
2021/03/19 04:58:16;;;;;;;7.50;6.35;;;;;;;32.55;48.73;100751.16;5038092;28;70061;-42
2021/03/19 05:00:46;;;;;;;6.95;5.88;;;;;;;32.61;48.30;100755.66;5036047;28;66154;-43
2021/03/19 05:03:16;;;;;;;6.95;6.32;;;;;;;32.64;48.53;100747.84;5036049;28;69489;-42
2021/03/19 05:05:46;;;;;;;8.23;6.25;;;;;;;32.68;48.60;100737.34;5032732;28;65203;-44
2021/03/19 05:08:16;;;;;;;7.30;6.18;;;;;;;32.71;48.40;100723.31;5035701;28;69572;-41
2021/03/19 05:10:46;;;;;;;6.30;5.90;;;;;;;32.73;48.05;100721.16;5033787;28;67784;-41
2021/03/19 05:13:17;;;;;;;7.38;6.65;;;;;;;32.72;48.20;100711.38;5034286;28;70024;-41
2021/03/19 05:15:46;;;;;;;7.00;6.38;;;;;;;32.75;48.01;100713.63;5036189;28;66208;-42
2021/03/19 05:18:19;;;;;;;6.57;6.00;;;;;;;32.77;47.97;100695.19;5035876;27;70518;-42
2021/03/19 05:20:50;;;;;;;7.15;6.50;;;;;;;32.86;47.88;100703.81;5029867;28;65787;-42
2021/03/19 05:23:24;;;;;;;9.02;6.70;;;;;;;32.89;48.06;100698.72;5032655;28;70644;-42
2021/03/19 05:25:54;;;;;;;6.40;6.00;;;;;;;32.92;48.00;100692.81;5036205;28;66052;-43
2021/03/19 05:28:25;;;;;;;7.75;6.30;;;;;;;32.95;48.19;100686.06;5034802;28;70610;-43
2021/03/19 05:30:55;;;;;;;8.65;7.03;;;;;;;32.96;47.90;100678.72;5032977;28;66160;-45
2021/03/19 05:33:30;;;;;;;6.55;6.00;;;;;;;32.96;47.97;100667.88;5035651;28;70185;-42
2021/03/19 05:35:59;;;;;;;6.88;5.65;;;;;;;33.05;47.62;100669.19;5034857;28;65318;-42
2021/03/19 05:38:29;;;;;;;9.52;6.40;;;;;;;33.03;47.68;100655.00;5035141;28;70073;-42
2021/03/19 05:40:59;;;;;;;6.25;5.75;;;;;;;33.09;47.66;100654.03;5036852;28;66153;-40
2021/03/19 05:43:42;;;;;;;6.40;5.90;;;;;;;33.11;47.44;100650.03;5045045;28;69014;-42
2021/03/19 05:46:36;;;;;;;6.50;5.97;;;;;;;33.15;47.50;100647.63;5038400;28;65059;-42
2021/03/19 05:49:10;;;;;;;7.78;6.20;;;;;;;33.21;47.55;100641.25;5026545;28;70305;-41
2021/03/19 05:51:44;;;;;;;7.07;6.47;;;;;;;33.24;47.66;100634.50;5036064;28;66268;-41
2021/03/19 05:54:36;;;;;;;6.10;5.63;;;;;;;33.25;47.43;100617.13;5036843;28;69454;-41
2021/03/19 05:57:08;;;;;;;9.55;5.85;;;;;;;33.32;47.31;100621.34;5036704;28;65995;-42
2021/03/19 05:59:51;;;;;;;8.60;6.22;;;;;;;33.26;47.35;100597.84;5033871;28;69750;-42
2021/03/19 06:02:33;;;;;;;6.60;5.97;;;;;;;33.33;47.18;100601.25;5037110;28;65405;-42
2021/03/19 06:05:25;;;;;;;6.18;5.65;;;;;;;33.36;47.32;100600.75;5037613;28;69848;-41
2021/03/19 06:08:06;;;;;;;6.00;5.57;;;;;;;33.41;47.38;100599.22;5031184;28;65372;-43
2021/03/19 06:10:43;;;;;;;6.32;5.60;;;;;;;33.40;47.15;100586.66;5033552;28;69846;-41
2021/03/19 06:13:22;;;;;;;6.72;6.03;;;;;;;33.51;47.18;100585.78;5035373;28;66241;-41
2021/03/19 06:15:55;;;;;;;6.07;5.50;;;;;;;33.54;47.16;100585.31;5037188;28;69693;-41
2021/03/19 06:18:44;;;;;;;7.25;6.57;;;;;;;33.52;47.18;100577.44;5035278;28;64911;-41
2021/03/19 06:21:23;;;;;;;6.18;5.53;;;;;;;33.61;47.51;100580.56;5034928;28;69250;-40
2021/03/19 06:24:25;;;;;;;6.90;6.30;;;;;;;33.44;46.96;100552.50;5033617;28;66274;-42
2021/03/19 06:27:13;;;;;;;5.75;5.35;;;;;;;33.67;47.24;100567.88;5036753;28;70001;-43
2021/03/19 06:29:48;;;;;;;6.93;6.30;;;;;;;33.72;46.89;100566.06;5028320;28;65711;-42
2021/03/19 06:32:26;;;;;;;6.75;5.88;;;;;;;33.61;46.89;100541.66;5034633;28;70037;-41
2021/03/19 06:35:18;;;;;;;6.10;5.53;;;;;;;33.81;46.82;100553.69;5037986;28;65474;-41
2021/03/19 06:37:49;;;;;;;;;;;;;;;33.80;47.09;100543.88;5034311;28;69987;-41
2021/03/19 06:40:33;;;;;;;9.88;6.22;;;;;;;33.91;46.85;100546.75;5037154;28;65335;-41
2021/03/19 06:43:13;;;;;;;6.95;6.35;;;;;;;33.94;46.60;100538.09;5049393;28;69730;-41
2021/03/19 06:45:43;;;;;;;8.40;6.05;;;;;;;33.99;46.81;100540.88;5041817;28;65366;-41
2021/03/19 06:48:41;;;;;;;10.27;6.22;;;;;;;33.88;46.71;100511.88;5053253;28;69981;-43
2021/03/19 06:51:29;;;;;;;6.40;5.80;;;;;;;34.04;46.60;100527.34;5030962;28;66212;-41
2021/03/19 06:54:26;;;;;;;6.90;5.97;;;;;;;34.09;46.65;100521.19;5040341;27;69863;-41
2021/03/19 06:57:13;;;;;;;9.63;5.65;;;;;;;34.16;46.71;100517.22;5034892;28;65106;-41
2021/03/19 06:59:59;;;;;;;6.93;5.63;;;;;;;34.20;46.72;100518.34;5037465;28;70191;-41
2021/03/19 07:02:43;;;;;;;5.72;5.30;;;;;;;34.23;46.35;100506.94;5029661;28;65915;-41
2021/03/19 07:05:45;;;;;;;5.85;5.35;;;;;;;34.31;46.42;100508.41;5055358;28;69721;-41
2021/03/19 07:08:31;;;;;;;6.25;5.28;;;;;;;34.35;46.57;100500.56;5044689;28;65632;-41
2021/03/19 07:11:18;;;;;;;5.75;5.25;;;;;;;34.39;46.49;100496.28;5047591;28;70059;-41
2021/03/19 07:13:54;;;;;;;6.22;5.65;;;;;;;34.48;46.33;100489.28;5037383;28;66632;-41
2021/03/19 07:16:44;;;;;;;5.50;5.10;;;;;;;34.46;45.83;100491.44;5043364;28;70033;-42
2021/03/19 07:19:16;;;;;;;8.55;5.95;;;;;;;34.56;46.18;100488.06;5047725;28;66638;-43
2021/03/19 07:22:23;;;;;;;5.80;5.40;;;;;;;34.61;46.05;100480.78;5040548;28;69956;-43
2021/03/19 07:25:20;;;;;;;5.90;5.40;;;;;;;34.69;46.09;100488.50;5038634;28;65953;-41
2021/03/19 07:28:01;;;;;;;5.50;5.07;;;;;;;34.77;46.11;100489.09;5047111;28;69448;-42
2021/03/19 07:30:48;;;;;;;5.70;5.13;;;;;;;34.82;45.75;100480.97;5033924;28;66516;-44
2021/03/19 07:33:46;;;;;;;5.68;5.28;;;;;;;34.87;46.01;100467.41;5025960;28;70530;-40
2021/03/19 07:36:56;;;;;;;5.30;4.90;;;;;;;34.93;45.72;100466.38;5049213;28;65926;-41
2021/03/19 07:39:41;;;;;;;7.53;5.00;;;;;;;34.99;45.76;100472.69;5029564;28;69434;-43
2021/03/19 07:42:16;;;;;;;8.27;5.78;;;;;;;35.05;45.37;100466.19;5035374;28;66564;-42
2021/03/19 07:45:06;;;;;;;5.15;4.72;;;;;;;35.09;45.49;100461.91;5038822;28;69153;-43
2021/03/19 07:48:00;;;;;;;6.30;5.70;;;;;;;34.99;45.50;100438.06;5038592;28;65897;-43
2021/03/19 07:50:51;;;;;;;5.78;5.28;;;;;;;35.22;45.39;100463.41;5029941;28;70418;-42
2021/03/19 07:53:26;;;;;;;7.32;5.35;;;;;;;35.30;45.13;100457.44;5036159;28;64483;-43
2021/03/19 07:56:27;;;;;;;5.70;4.43;;;;;;;35.34;45.30;100447.69;5034227;28;69026;-42
2021/03/19 07:59:04;;;;;;;5.40;4.93;;;;;;;35.43;45.43;100453.47;5035002;27;65221;-42
2021/03/19 08:01:37;;;;;;;7.32;5.07;;;;;;;35.48;45.07;100446.13;5033700;28;69353;-43
2021/03/19 08:04:39;;;;;;;8.80;4.70;;;;;;;35.51;44.96;100445.59;5039080;28;66112;-43
2021/03/19 08:07:31;;;;;;;4.70;4.30;;;;;;;35.48;45.09;100429.78;5031002;28;70694;-43
2021/03/19 08:10:24;;;;;;;5.40;4.90;;;;;;;35.52;44.50;100413.69;5034884;28;66148;-43
2021/03/19 08:13:15;;;;;;;5.05;4.65;;;;;;;35.70;44.26;100429.66;5032726;28;70054;-43
2021/03/19 08:16:00;;;;;;;5.35;4.95;;;;;;;35.81;44.08;100433.28;5046039;28;66124;-43
2021/03/19 08:18:44;;;;;;;6.00;4.70;;;;;;;35.86;44.29;100425.13;5037333;28;70721;-42
2021/03/19 08:21:33;;;;;;;4.80;4.50;;;;;;;35.83;44.14;100413.91;5044405;28;66216;-43
2021/03/19 08:24:20;;;;;;;6.75;4.47;;;;;;;35.96;44.14;100422.44;5045237;28;69447;-44
2021/03/19 08:27:10;;;;;;;5.18;4.75;;;;;;;36.04;44.49;100426.56;5040691;28;66101;-43
2021/03/19 08:30:02;;;;;;;5.35;4.60;;;;;;;36.13;44.35;100422.25;5030943;28;69248;-43
2021/03/19 08:32:49;;;;;;;4.70;4.40;;;;;;;36.20;44.41;100424.75;5034906;28;66661;-43
2021/03/19 08:35:31;;;;;;;4.90;4.50;;;;;;;36.22;44.12;100422.59;5030716;28;69917;-44
2021/03/19 08:38:38;;;;;;;5.40;4.72;;;;;;;36.30;44.20;100426.69;5035240;28;67321;-45
2021/03/19 08:41:23;;;;;;;4.35;4.05;;;;;;;36.22;44.03;100406.19;5036958;28;69607;-44
2021/03/19 08:44:01;;;;;;;4.78;4.30;;;;;;;36.39;43.72;100425.91;5024409;28;66135;-44
2021/03/19 08:46:46;;;;;;;6.53;3.88;;;;;;;36.39;43.73;100425.09;5036123;28;69073;-44
2021/03/19 08:49:26;;;;;;;4.82;4.43;;;;;;;36.51;43.32;100431.13;5038663;28;66689;-43
2021/03/19 08:52:27;;;;;;;4.95;4.55;;;;;;;36.51;43.96;100428.38;5034270;28;70009;-44
2021/03/19 08:55:13;;;;;;;6.82;4.15;;;;;;;36.58;43.53;100430.88;5032993;28;65410;-44
2021/03/19 08:57:47;;;;;;;5.78;4.05;;;;;;;36.57;43.92;100412.84;5032823;28;70349;-45
2021/03/19 09:00:25;;;;;;;4.43;3.95;;;;;;;36.73;43.46;100439.13;5032643;28;66096;-43
2021/03/19 09:03:06;;;;;;;5.75;3.95;;;;;;;36.77;43.09;100432.00;5014502;28;70190;-44
2021/03/19 09:06:12;;;;;;;3.97;3.58;;;;;;;36.86;42.52;100432.28;5021415;28;66811;-44
2021/03/19 09:08:52;;;;;;;4.50;4.10;;;;;;;36.90;42.65;100434.22;5039282;28;69741;-43
2021/03/19 09:11:41;;;;;;;4.38;3.97;;;;;;;36.99;42.64;100441.88;5011682;28;66061;-44
2021/03/19 09:14:11;;;;;;;4.20;3.80;;;;;;;37.05;43.22;100435.34;5020957;28;69803;-45
2021/03/19 09:16:47;;;;;;;3.83;3.53;;;;;;;37.09;43.12;100441.91;5037562;28;66725;-45
2021/03/19 09:19:45;;;;;;;7.75;4.20;;;;;;;37.10;42.36;100443.53;5023582;28;69245;-46
2021/03/19 09:22:21;;;;;;;4.60;4.20;;;;;;;37.15;42.22;100446.28;5048620;28;65504;-45
2021/03/19 09:25:14;;;;;;;4.22;3.70;;;;;;;37.17;42.89;100452.31;5036004;28;70568;-45
2021/03/19 09:28:11;;;;;;;4.10;3.72;;;;;;;37.18;42.82;100448.47;5034450;28;65653;-45
2021/03/19 09:30:45;;;;;;;5.90;3.60;;;;;;;37.24;42.45;100449.28;5036000;28;69812;-44
2021/03/19 09:33:43;;;;;;;7.75;4.25;;;;;;;37.26;41.95;100452.56;5035281;28;65746;-45
2021/03/19 09:36:50;;;;;;;7.88;3.47;;;;;;;37.33;42.05;100456.69;5039293;28;70216;-45
2021/03/19 09:39:47;;;;;;;10.60;3.72;;;;;;;37.37;42.40;100465.16;5030574;28;66262;-45
2021/03/19 09:42:18;;;;;;;8.40;4.07;;;;;;;37.40;42.07;100463.78;5031149;28;70716;-45
2021/03/19 09:45:02;;;;;;;3.78;3.47;;;;;;;37.39;41.85;100468.44;5035861;28;66474;-45
2021/03/19 09:47:39;;;;;;;6.78;4.13;;;;;;;37.40;42.22;100470.06;5035705;28;70181;-45
2021/03/19 09:50:28;;;;;;;8.68;3.60;;;;;;;37.41;41.69;100474.44;5033517;28;64663;-45
2021/03/19 09:53:22;;;;;;;14.23;3.95;;;;;;;37.45;42.53;100480.19;5031013;28;69992;-47
2021/03/19 09:56:04;;;;;;;11.20;4.10;;;;;;;37.37;42.79;100458.84;5029746;28;66726;-44
2021/03/19 09:58:42;;;;;;;8.05;5.00;;;;;;;37.46;42.92;100500.97;5034299;28;70049;-47
2021/03/19 10:01:44;;;;;;;6.43;4.80;;;;;;;37.43;42.72;100507.81;5033934;28;66325;-46
2021/03/19 10:04:37;;;;;;;9.75;5.15;;;;;;;37.34;43.20;100515.75;5031391;28;70026;-46
2021/03/19 10:07:22;;;;;;;13.77;4.55;;;;;;;37.28;43.39;100516.84;5035539;28;65995;-45
2021/03/19 10:09:57;;;;;;;11.38;5.00;;;;;;;37.24;43.70;100523.13;5034847;28;69873;-45
2021/03/19 10:12:28;;;;;;;12.70;4.55;;;;;;;37.18;43.74;100527.78;5034931;28;65502;-44
2021/03/19 10:15:12;;;;;;;12.05;5.40;;;;;;;37.11;43.38;100533.53;5035604;28;69957;-46
2021/03/19 10:17:51;;;;;;;10.93;5.00;;;;;;;37.02;44.23;100529.66;5060493;28;65392;-46
2021/03/19 10:20:34;;;;;;;5.60;4.38;;;;;;;37.01;44.06;100540.84;5032651;28;68849;-47
2021/03/19 10:23:24;;;;;;;5.65;4.25;;;;;;;36.97;43.75;100537.00;5035306;28;66027;-46
2021/03/19 10:26:06;;;;;;;8.82;4.30;;;;;;;36.87;44.07;100544.09;5034426;28;70017;-46
2021/03/19 10:28:38;;;;;;;14.90;3.83;;;;;;;36.84;43.63;100538.34;5035275;28;66607;-44
2021/03/19 10:31:18;;;;;;;16.40;4.38;;;;;;;36.79;44.25;100544.63;5035006;28;70981;-46
2021/03/19 10:34:02;;;;;;;7.07;4.20;;;;;;;36.71;44.76;100547.06;5035903;28;65918;-44
2021/03/19 10:36:39;;;;;;;12.27;4.20;;;;;;;36.64;44.73;100552.78;5035183;27;69254;-44
2021/03/19 10:39:30;;;;;;;4.20;3.55;;;;;;;36.66;44.53;100559.63;5035947;28;64707;-46
2021/03/19 10:42:25;;;;;;;4.45;4.05;;;;;;;36.63;44.53;100564.78;5014518;28;69889;-44
2021/03/19 10:45:06;;;;;;;13.98;4.78;;;;;;;36.63;44.63;100570.25;5028550;28;66235;-46
2021/03/19 10:47:44;;;;;;;11.10;4.40;;;;;;;36.57;44.33;100568.59;5024863;28;69293;-47
2021/03/19 10:50:27;;;;;;;11.65;3.72;;;;;;;36.50;43.51;100576.16;5032887;28;65480;-44
2021/03/19 10:53:06;;;;;;;4.20;3.83;;;;;;;36.24;44.57;100556.91;5034440;28;70188;-47
2021/03/19 10:55:37;;;;;;;5.70;4.03;;;;;;;36.35;45.29;100575.00;5034238;28;66165;-46
2021/03/19 10:58:39;;;;;;;11.10;3.42;;;;;;;36.34;45.50;100573.38;5036518;28;69581;-44
2021/03/19 11:01:39;;;;;;;6.97;4.22;;;;;;;36.19;45.48;100563.19;5033753;28;65791;-43
2021/03/19 11:04:36;;;;;;;13.23;5.23;;;;;;;36.33;45.79;100574.47;5031799;28;70531;-46
2021/03/19 11:07:18;;;;;;;7.80;5.68;;;;;;;36.23;45.92;100593.53;5033994;28;66295;-46
2021/03/19 11:10:24;;;;;;;8.05;4.90;;;;;;;36.24;44.81;100600.63;5031672;28;69791;-40
2021/03/19 11:13:15;;;;;;;7.82;5.20;;;;;;;36.10;43.66;100607.63;5035888;28;43234;-42
2021/03/19 11:15:47;;;;;;;5.05;4.25;;;;;;;35.95;43.10;100611.03;5030203;28;70031;-41
2021/03/19 11:18:31;;;;;;;5.28;4.65;;;;;;;35.84;42.43;100621.06;5034149;28;65745;-40
2021/03/19 11:21:07;;;;;;;5.05;4.47;;;;;;;35.70;41.90;100617.13;5037397;28;69919;-40
2021/03/19 11:23:38;;;;;;;4.95;4.30;;;;;;;35.58;41.02;100618.13;5017547;28;65421;-41
2021/03/19 11:26:26;;;;;;;5.50;3.80;;;;;;;35.45;40.61;100613.03;5036544;28;69982;-41
2021/03/19 11:29:18;;;;;;;4.57;4.15;;;;;;;35.16;39.66;100600.72;5035826;28;66547;-41
2021/03/19 11:32:04;;;;;;;3.97;3.67;;;;;;;35.20;39.75;100629.16;5035255;28;70012;-41
2021/03/19 11:34:49;;;;;;;7.97;4.25;;;;;;;34.98;39.82;100632.69;5034983;28;64371;-40
2021/03/19 11:37:22;;;;;;;4.72;4.32;;;;;;;34.97;40.04;100633.78;5028319;28;69590;-41
2021/03/19 11:39:57;;;;;;;4.20;3.80;;;;;;;34.90;40.06;100633.13;5035003;28;66179;-39
2021/03/19 11:43:06;;;;;;;3.70;3.40;;;;;;;34.85;39.85;100638.50;5036573;28;69518;-39
2021/03/19 11:45:42;;;;;;;3.67;3.40;;;;;;;34.73;39.64;100643.28;4994447;28;66304;-39
2021/03/19 11:48:14;;;;;;;6.40;3.38;;;;;;;34.65;39.58;100650.78;4993090;28;70649;-42
2021/03/19 11:50:48;;;;;;;3.70;3.40;;;;;;;34.42;39.35;100623.75;4990972;28;65209;-38
2021/03/19 11:53:27;;;;;;;5.32;3.75;;;;;;;34.55;39.51;100650.63;5033478;28;69542;-39
2021/03/19 11:55:58;;;;;;;6.82;3.95;;;;;;;34.51;41.35;100638.56;5036139;28;65945;-40
2021/03/19 11:58:31;;;;;;;7.30;3.92;;;;;;;34.24;42.31;100612.06;5032599;28;69988;-40
2021/03/19 12:01:04;;;;;;;4.97;4.57;;;;;;;34.35;42.81;100644.88;5034855;28;66589;-39
2021/03/19 12:03:40;;;;;;;6.03;3.63;;;;;;;34.14;42.31;100628.25;5038129;28;69859;-40
2021/03/19 12:06:13;;;;;;;8.15;4.85;;;;;;;34.25;41.96;100651.81;5034841;28;65744;-41
2021/03/19 12:08:44;;;;;;;4.70;4.22;;;;;;;34.19;41.38;100669.16;5036869;28;69498;-40
2021/03/19 12:11:35;;;;;;;4.03;3.73;;;;;;;34.12;41.28;100663.03;5033755;28;65969;-40
2021/03/19 12:14:08;;;;;;;9.30;3.50;;;;;;;34.04;41.21;100663.41;5038141;28;69419;-38
2021/03/19 12:16:38;;;;;;;10.70;3.55;;;;;;;33.99;41.22;100663.34;5036444;28;66223;-40
2021/03/19 12:19:08;;;;;;;20.05;4.57;;;;;;;33.92;41.84;100673.56;5039125;28;70103;-40
2021/03/19 12:21:37;;;;;;;9.27;4.38;;;;;;;33.91;42.24;100672.75;5037123;28;65870;-40